Time;durP1;ratioP1;P1;durP2;ratioP2;P2;SDS_P1;SDS_P2;PMS_P1;PMS_P2;Temp;Humidity;BMP_temperature;BMP_pressure;BME280_temperature;BME280_humidity;BME280_pressure;Samples;Min_cycle;Max_cycle;Signal;HPM_P1;HPM_P2
2022/12/27 06:37:47;;;;;;;18.20;14.68;;;;;;;6.17;100.00;97682.04;1867427;75;28023;-57
2022/12/27 06:40:14;;;;;;;19.23;12.95;;;;;;;6.13;100.00;97682.29;1815633;77;20851;-63
2022/12/27 06:42:40;;;;;;;15.68;12.00;;;;;;;6.15;100.00;97679.62;1819945;78;21709;-60
2022/12/27 06:45:08;;;;;;;17.27;11.83;;;;;;;6.22;100.00;97677.24;1814301;78;20817;-60
2022/12/27 06:47:35;;;;;;;10.63;8.50;;;;;;;6.29;100.00;97681.19;1813222;78;20840;-60
2022/12/27 06:50:03;;;;;;;12.68;9.90;;;;;;;6.37;100.00;97685.97;1794883;80;20963;-62
2022/12/27 06:52:31;;;;;;;11.75;9.53;;;;;;;6.46;100.00;97676.89;1810282;77;20915;-58
2022/12/27 06:54:58;;;;;;;9.98;8.38;;;;;;;6.55;100.00;97677.39;1827387;78;21200;-59
2022/12/27 06:57:25;;;;;;;12.37;8.93;;;;;;;6.64;100.00;97689.06;1820726;78;20928;-59
2022/12/27 06:59:52;;;;;;;9.80;8.40;;;;;;;6.71;100.00;97702.10;1776344;80;21454;-58
2022/12/27 07:02:19;;;;;;;10.85;8.33;;;;;;;6.78;100.00;97694.06;1775403;80;21460;-57
2022/12/27 07:04:45;;;;;;;13.45;10.03;;;;;;;6.84;100.00;97688.19;1774230;80;20987;-57
2022/12/27 07:07:12;;;;;;;14.30;10.58;;;;;;;6.92;100.00;97696.16;1776630;80;21080;-59
2022/12/27 07:09:39;;;;;;;16.10;10.80;;;;;;;6.98;100.00;97692.38;1756483;80;21544;-57
2022/12/27 07:12:06;;;;;;;11.65;8.18;;;;;;;7.04;100.00;97703.29;1758521;80;21051;-60
2022/12/27 07:14:35;;;;;;;9.53;7.90;;;;;;;7.12;100.00;97708.02;1773860;80;20904;-62
2022/12/27 07:17:01;;;;;;;8.35;6.62;;;;;;;7.19;100.00;97715.98;1776931;80;20959;-59
2022/12/27 07:19:28;;;;;;;8.75;7.35;;;;;;;7.27;100.00;97715.94;1776378;80;21139;-58
2022/12/27 07:21:55;;;;;;;8.85;6.33;;;;;;;7.32;100.00;97711.39;1767085;80;21533;-57
2022/12/27 07:24:21;;;;;;;8.10;6.15;;;;;;;7.38;100.00;97702.28;1765094;81;21076;-58
2022/12/27 07:26:48;;;;;;;6.30;5.50;;;;;;;7.45;100.00;97700.11;1765625;81;21062;-63
2022/12/27 07:29:15;;;;;;;8.58;6.33;;;;;;;7.52;100.00;97706.45;1766714;81;20915;-61
2022/12/27 07:31:42;;;;;;;7.35;6.03;;;;;;;7.55;100.00;97711.23;1766362;81;21630;-63
2022/12/27 07:34:09;;;;;;;7.47;5.97;;;;;;;7.56;100.00;97704.28;1756322;79;21053;-62
2022/12/27 07:36:44;;;;;;;6.33;5.45;;;;;;;7.60;100.00;97712.53;1743898;80;21043;-55
2022/12/27 07:39:11;;;;;;;7.05;5.28;;;;;;;7.61;100.00;97712.01;1748761;81;21028;-62
2022/12/27 07:41:39;;;;;;;5.65;4.90;;;;;;;7.60;100.00;97713.87;1753043;81;20944;-59
2022/12/27 07:44:06;;;;;;;7.08;5.28;;;;;;;7.62;100.00;97718.91;1747849;79;21920;-61
2022/12/27 07:46:33;;;;;;;6.22;5.47;;;;;;;7.61;100.00;97717.34;1746457;81;20944;-60
2022/12/27 07:49:02;;;;;;;6.67;5.35;;;;;;;7.57;100.00;97721.08;1747272;81;21459;-63
2022/12/27 07:51:31;;;;;;;6.75;5.65;;;;;;;7.52;100.00;97715.25;1754259;81;21403;-61
2022/12/27 07:53:57;;;;;;;6.35;5.47;;;;;;;7.53;100.00;97712.05;1747412;79;21119;-58
2022/12/27 07:56:26;;;;;;;6.87;5.28;;;;;;;7.53;100.00;97717.38;1748806;81;21133;-63
2022/12/27 07:58:54;;;;;;;6.83;5.28;;;;;;;7.52;100.00;97720.58;1750166;79;20999;-60
2022/12/27 08:01:22;;;;;;;6.40;5.15;;;;;;;7.48;100.00;97721.41;1750491;81;20993;-62
2022/12/27 08:03:49;;;;;;;5.47;4.85;;;;;;;7.44;100.00;97725.15;1749589;81;21103;-61
2022/12/27 08:06:25;;;;;;;6.67;5.12;;;;;;;7.41;100.00;97728.38;1743039;81;20928;-60
2022/12/27 08:08:53;;;;;;;6.50;4.83;;;;;;;7.41;100.00;97736.91;1736673;79;21225;-59
2022/12/27 08:11:20;;;;;;;4.97;4.25;;;;;;;7.40;100.00;97741.96;1748832;81;21026;-62
2022/12/27 08:13:47;;;;;;;4.33;3.85;;;;;;;7.38;100.00;97748.11;1751401;81;21005;-57
2022/12/27 08:16:19;;;;;;;5.28;4.62;;;;;;;7.38;100.00;97748.11;1749431;81;21514;-60
2022/12/27 08:18:45;;;;;;;9.40;7.00;;;;;;;7.34;100.00;97743.08;1750739;81;20924;-61
2022/12/27 08:21:12;;;;;;;8.83;5.85;;;;;;;7.26;100.00;97755.10;1746076;81;21125;-60
2022/12/27 08:23:39;;;;;;;9.43;5.78;;;;;;;7.25;100.00;97750.06;1765024;81;20987;-60
2022/12/27 08:26:07;;;;;;;9.43;5.97;;;;;;;7.23;100.00;97764.19;1760020;81;21525;-67
2022/12/27 08:28:34;;;;;;;8.40;5.58;;;;;;;7.21;100.00;97772.97;1745428;79;21019;-59
2022/12/27 08:31:01;;;;;;;8.45;6.47;;;;;;;7.21;100.00;97759.64;1742617;79;21551;-61
2022/12/27 08:33:27;;;;;;;8.55;5.22;;;;;;;7.18;100.00;97758.36;1756705;81;21128;-57
2022/12/27 08:35:56;;;;;;;7.30;4.67;;;;;;;7.16;100.00;97769.79;1745452;79;21072;-59
2022/12/27 08:38:22;;;;;;;8.38;5.15;;;;;;;7.13;100.00;97768.22;1747926;79;20963;-59
2022/12/27 08:40:49;;;;;;;8.00;4.80;;;;;;;7.10;100.00;97763.44;1753977;80;21125;-56
2022/12/27 08:43:16;;;;;;;6.45;4.58;;;;;;;7.05;100.00;97763.45;1708045;81;20932;-58
2022/12/27 08:45:43;;;;;;;6.47;4.03;;;;;;;7.04;100.00;97757.88;1767902;80;21106;-60
2022/12/27 08:48:09;;;;;;;5.87;5.03;;;;;;;7.03;100.00;97771.72;1775764;80;20952;-61
2022/12/27 08:50:36;;;;;;;8.83;4.20;;;;;;;7.03;100.00;97771.72;1769741;80;21336;-58
2022/12/27 08:53:04;;;;;;;6.40;3.87;;;;;;;7.02;100.00;97777.33;1760949;81;21015;-56
2022/12/27 08:55:31;;;;;;;6.40;4.10;;;;;;;6.98;100.00;97784.25;1784438;80;21081;-60
2022/12/27 08:57:59;;;;;;;5.95;3.30;;;;;;;6.96;100.00;97791.72;1765845;80;21116;-62
2022/12/27 09:00:27;;;;;;;4.83;3.30;;;;;;;6.93;100.00;97797.58;1763772;79;21125;-59
2022/12/27 09:02:54;;;;;;;4.72;3.72;;;;;;;6.93;100.00;97805.56;1763691;81;21048;-63
2022/12/27 09:05:21;;;;;;;6.03;3.20;;;;;;;6.87;100.00;97804.27;1752094;81;20916;-63
2022/12/27 09:07:48;;;;;;;5.20;3.30;;;;;;;6.80;100.00;97817.06;1774218;80;21032;-61
2022/12/27 09:10:15;;;;;;;3.60;2.92;;;;;;;6.76;100.00;97823.17;1774348;80;21055;-62
2022/12/27 09:12:42;;;;;;;3.75;2.65;;;;;;;6.75;100.00;97809.09;1778245;80;20912;-62
2022/12/27 09:15:10;;;;;;;3.95;2.60;;;;;;;6.75;100.00;97826.39;1804396;78;21567;-59
2022/12/27 09:17:38;;;;;;;5.10;2.58;;;;;;;6.74;100.00;97820.79;1758530;80;21058;-60
2022/12/27 09:20:06;;;;;;;3.35;2.65;;;;;;;6.69;100.00;97814.14;1779071;80;21014;-66
2022/12/27 09:22:34;;;;;;;4.12;2.55;;;;;;;6.65;100.00;97820.27;1757564;80;21773;-60
2022/12/27 09:25:01;;;;;;;2.85;2.55;;;;;;;6.62;100.00;97820.28;1775353;80;21081;-61
2022/12/27 09:27:27;;;;;;;3.27;2.40;;;;;;;6.63;100.00;97813.90;1749821;81;21053;-58
2022/12/27 09:29:54;;;;;;;4.40;2.65;;;;;;;6.61;100.00;97821.36;1750168;80;21158;-62
2022/12/27 09:32:20;;;;;;;3.10;2.17;;;;;;;6.57;100.00;97822.16;1766458;80;21050;-62
2022/12/27 09:34:47;;;;;;;3.25;2.65;;;;;;;6.51;100.00;97836.52;1769334;80;21130;-63
2022/12/27 09:37:13;;;;;;;3.47;2.60;;;;;;;6.46;100.00;97830.67;1778110;80;20935;-64
2022/12/27 09:39:42;;;;;;;5.05;2.60;;;;;;;6.41;100.00;97829.34;1758578;81;21533;-65
2022/12/27 09:42:33;;;;;;;3.52;2.37;;;;;;;6.40;100.00;97829.09;1766417;80;21077;-64
2022/12/27 09:45:18;;;;;;;3.37;2.20;;;;;;;6.38;100.00;97838.41;1774761;80;21578;-60
2022/12/27 09:47:55;;;;;;;3.42;2.67;;;;;;;6.38;100.00;97841.06;1742584;78;21284;-60
2022/12/27 09:50:33;;;;;;;2.83;2.17;;;;;;;6.37;100.00;97838.93;1761306;81;20905;-60
2022/12/27 09:53:16;;;;;;;3.08;2.40;;;;;;;6.38;100.00;97851.19;1752273;81;20980;-63
2022/12/27 09:55:46;;;;;;;4.03;2.30;;;;;;;6.36;100.00;97839.98;1749676;81;21040;-59
2022/12/27 09:58:31;;;;;;;3.25;2.22;;;;;;;6.33;100.00;97839.21;1773560;78;21010;-59
2022/12/27 10:26:17;;;;;;;3.12;2.67;;;;;;;6.48;100.00;97888.41;1864221;75;22621;-58
2022/12/27 10:28:52;;;;;;;3.80;2.85;;;;;;;6.45;100.00;97887.63;1823078;77;21055;-58
2022/12/27 10:31:21;;;;;;;3.60;2.75;;;;;;;6.43;100.00;97892.39;1809108;77;21525;-62
2022/12/27 10:33:50;;;;;;;2.92;2.50;;;;;;;6.37;100.00;97882.83;1808274;78;21626;-58
2022/12/27 10:36:29;;;;;;;4.20;2.50;;;;;;;6.31;100.00;97886.56;1826130;77;20959;-59
2022/12/27 10:38:56;;;;;;;3.40;2.72;;;;;;;6.26;100.00;97892.40;1819737;77;21457;-58
2022/12/27 10:41:40;;;;;;;3.60;2.90;;;;;;;6.16;100.00;97886.53;1825676;77;21057;-58
2022/12/27 10:44:10;;;;;;;4.55;2.72;;;;;;;6.10;100.00;97885.72;1782765;80;21992;-61
2022/12/27 10:46:37;;;;;;;3.20;2.60;;;;;;;6.05;100.00;97889.69;1786432;78;20926;-59
2022/12/27 10:49:12;;;;;;;6.25;3.17;;;;;;;6.02;100.00;97898.74;1767113;78;21587;-66
2022/12/27 10:51:40;;;;;;;4.78;2.80;;;;;;;5.99;100.00;97896.59;1794689;78;20954;-68
2022/12/27 10:54:17;;;;;;;4.75;2.85;;;;;;;5.95;100.00;97905.64;1789680;79;21062;-64
2022/12/27 10:56:44;;;;;;;3.67;2.60;;;;;;;5.93;100.00;97910.43;1769086;79;21226;-63
2022/12/27 10:59:21;;;;;;;5.20;3.08;;;;;;;5.88;100.00;97911.74;1769132;79;20952;-67
2022/12/27 11:02:03;;;;;;;4.47;3.20;;;;;;;5.86;100.00;97919.70;1776495;79;20940;-66
2022/12/27 11:04:30;;;;;;;4.25;3.05;;;;;;;5.84;100.00;97922.60;1771456;79;21138;-55
2022/12/27 11:07:09;;;;;;;5.45;3.67;;;;;;;5.82;100.00;97921.23;1753551;80;21093;-59
2022/12/27 11:09:42;;;;;;;3.67;2.67;;;;;;;5.79;100.00;97926.57;1756345;81;21204;-56
2022/12/27 11:12:27;;;;;;;4.12;2.80;;;;;;;5.82;100.00;97937.98;1782935;80;20959;-53
2022/12/27 11:15:00;;;;;;;4.53;3.58;;;;;;;5.80;100.00;97930.00;1788106;80;20958;-64
2022/12/27 11:17:43;;;;;;;3.50;2.87;;;;;;;5.80;100.00;97933.98;1765800;80;21037;-63
2022/12/27 11:20:34;;;;;;;3.27;2.15;;;;;;;5.80;100.00;97942.77;1784176;79;20991;-58
2022/12/27 11:23:04;;;;;;;4.37;1.65;;;;;;;5.74;97.63;97957.63;1808356;79;21370;-59
2022/12/27 11:25:30;;;;;;;2.80;1.47;;;;;;;5.63;94.34;97973.27;1809231;79;20883;-60
2022/12/27 11:28:07;;;;;;;3.05;1.80;;;;;;;5.47;91.33;97965.22;1792303;80;21450;-60
2022/12/27 11:30:38;;;;;;;4.50;2.40;;;;;;;5.35;91.24;97975.76;1790676;80;21349;-62
2022/12/27 11:33:21;;;;;;;3.33;1.90;;;;;;;5.22;92.19;97980.20;1789547;80;21078;-61
2022/12/27 11:35:50;;;;;;;4.72;2.70;;;;;;;5.19;93.26;97987.34;1770137;80;21093;-56
2022/12/27 11:38:29;;;;;;;4.10;2.65;;;;;;;5.15;92.74;97991.05;1778926;80;21476;-64
2022/12/27 11:41:04;;;;;;;3.12;2.22;;;;;;;5.14;93.51;97998.73;1790581;80;21047;-62
2022/12/27 11:43:39;;;;;;;2.95;2.27;;;;;;;5.09;94.10;98004.00;1792248;80;21512;-64
2022/12/27 11:46:11;;;;;;;3.35;2.08;;;;;;;5.05;94.56;98012.73;1786806;78;21649;-62
2022/12/27 11:48:41;;;;;;;3.95;2.15;;;;;;;4.99;94.51;98009.26;1783863;79;21189;-61
2022/12/27 11:51:25;;;;;;;4.87;2.27;;;;;;;4.93;92.83;98019.55;1771475;80;21101;-56
2022/12/27 11:54:17;;;;;;;4.70;2.10;;;;;;;4.88;93.25;98020.82;1763344;80;21484;-60
2022/12/27 11:56:49;;;;;;;7.50;2.05;;;;;;;4.84;93.38;98034.33;1791001;80;20903;-60
2022/12/27 11:59:39;;;;;;;4.08;2.40;;;;;;;4.77;93.54;98048.33;1792149;80;20997;-60
2022/12/27 12:02:21;;;;;;;4.40;2.27;;;;;;;4.66;92.68;98055.93;1743856;80;21132;-64
2022/12/27 12:05:28;;;;;;;4.60;1.80;;;;;;;4.55;91.54;98054.20;1733628;80;21102;-63
2022/12/27 12:08:34;;;;;;;5.40;2.17;;;;;;;4.45;91.26;98064.73;1790144;78;21539;-63
2022/12/27 12:11:12;;;;;;;7.50;2.40;;;;;;;4.39;91.24;98072.34;1778760;78;21053;-64
2022/12/27 12:14:21;;;;;;;5.62;2.02;;;;;;;4.37;91.18;98066.48;1776751;78;21569;-60
2022/12/27 12:17:30;;;;;;;5.53;2.98;;;;;;;4.37;89.14;98073.92;1781141;80;21314;-62
2022/12/27 12:20:24;;;;;;;6.72;2.20;;;;;;;4.42;87.87;98081.13;1783569;80;21559;-59
2022/12/27 12:23:31;;;;;;;7.35;2.20;;;;;;;4.51;85.78;98078.31;1785341;78;20987;-60
2022/12/27 12:26:23;;;;;;;6.33;2.10;;;;;;;4.58;81.30;98089.53;1790718;79;20966;-59
2022/12/27 12:29:24;;;;;;;6.95;2.22;;;;;;;4.73;81.36;98088.37;1793396;80;21069;-58
2022/12/27 12:32:02;;;;;;;3.92;1.82;;;;;;;4.78;80.15;98090.53;1771297;80;21249;-60
2022/12/27 12:34:57;;;;;;;6.97;2.20;;;;;;;4.89;78.45;98094.62;1794002;80;21472;-61
2022/12/27 12:37:55;;;;;;;7.10;2.22;;;;;;;4.97;78.45;98092.85;1781342;78;21081;-58
2022/12/27 12:40:57;;;;;;;6.45;2.10;;;;;;;4.98;79.57;98103.72;1776066;78;20986;-58
2022/12/27 12:43:46;;;;;;;6.95;2.20;;;;;;;4.89;78.27;98110.02;1777904;80;20959;-62
2022/12/27 12:46:52;;;;;;;6.03;2.00;;;;;;;4.76;79.60;98105.09;1792365;78;21236;-58
2022/12/27 12:49:46;;;;;;;4.63;2.30;;;;;;;4.60;79.13;98118.73;1772848;80;21009;-61
2022/12/27 12:52:21;;;;;;;11.50;2.60;;;;;;;4.43;80.62;98137.89;1741907;80;20927;-65
2022/12/27 12:54:53;;;;;;;7.67;2.27;;;;;;;4.29;80.89;98135.85;1749716;80;21070;-62
2022/12/27 12:58:04;;;;;;;6.87;1.90;;;;;;;4.19;81.39;98131.25;1769811;80;21110;-59
2022/12/27 13:00:59;;;;;;;7.65;2.45;;;;;;;4.12;82.39;98131.41;1796171;78;21273;-64
2022/12/27 13:04:01;;;;;;;7.28;2.42;;;;;;;4.08;82.92;98144.88;1756063;79;21478;-60
2022/12/27 13:06:56;;;;;;;7.97;3.05;;;;;;;4.06;83.17;98131.08;1772165;79;20991;-59
2022/12/27 13:09:38;;;;;;;8.68;2.90;;;;;;;4.00;83.57;98139.20;1802983;78;26511;-61
2022/12/27 13:12:55;;;;;;;10.82;3.20;;;;;;;3.94;83.89;98143.63;1775967;78;21112;-59
2022/12/27 13:15:54;;;;;;;8.85;3.02;;;;;;;3.90;82.87;98173.51;1773729;79;21299;-57
2022/12/27 13:18:45;;;;;;;8.55;3.22;;;;;;;3.80;83.13;98175.48;1781194;78;21109;-62
2022/12/27 13:21:45;;;;;;;8.28;3.25;;;;;;;3.73;83.63;98172.19;1788825;78;20981;-57
2022/12/27 13:24:51;;;;;;;13.32;3.40;;;;;;;3.67;83.96;98182.45;1783058;78;20983;-63
2022/12/27 13:27:34;;;;;;;9.53;3.55;;;;;;;3.58;84.98;98186.52;1791361;80;20999;-61
2022/12/27 13:30:20;;;;;;;12.47;3.50;;;;;;;3.49;85.67;98197.23;1788888;78;21236;-59
2022/12/27 13:33:02;;;;;;;11.20;4.08;;;;;;;3.43;86.61;98192.90;1792642;80;21053;-59
2022/12/27 13:35:47;;;;;;;12.50;4.22;;;;;;;3.43;87.09;98200.84;1759359;79;21053;-58
2022/12/27 13:38:50;;;;;;;10.03;4.67;;;;;;;3.44;87.49;98198.46;1763407;79;21129;-62
